createdAt,value
2022-10-10T00:04:44.610Z,95.66
2022-10-10T00:09:47.015Z,95.98
2022-10-10T00:14:48.544Z,96.06
2022-10-10T00:19:50.187Z,96.44
2022-10-10T00:24:51.775Z,96.56
2022-10-10T00:29:53.564Z,97.01
2022-10-10T00:34:55.109Z,97.15
2022-10-10T00:39:56.652Z,97.47
2022-10-10T00:45:29.311Z,97.95
2022-10-10T00:50:33.227Z,98.25
2022-10-10T00:55:35.697Z,98.59
2022-10-10T01:00:37.412Z,98.71
2022-10-10T01:05:41.339Z,99.13
2022-10-10T01:10:54.342Z,99.53
2022-10-10T01:16:34.146Z,99.73
2022-10-10T01:21:56.800Z,100.00
2022-10-10T01:27:08.779Z,100.00
2022-10-10T01:32:19.675Z,100.00
2022-10-10T01:37:31.708Z,100.00
2022-10-10T01:43:01.607Z,100.00
2022-10-10T01:48:07.121Z,100.00
2022-10-10T01:53:23.607Z,100.00
2022-10-10T01:58:34.350Z,100.00
2022-10-10T02:03:44.867Z,100.00
2022-10-10T02:09:03.414Z,100.00
2022-10-10T02:14:17.335Z,100.00
2022-10-10T02:19:21.463Z,100.00
2022-10-10T02:24:24.772Z,100.00
2022-10-10T02:29:32.321Z,100.00
2022-10-10T02:34:45.494Z,100.00
2022-10-10T02:39:58.367Z,100.00
2022-10-10T02:45:00.289Z,100.00
2022-10-10T02:50:01.861Z,100.00
2022-10-10T02:55:03.722Z,100.00
2022-10-10T03:00:06.568Z,100.00
2022-10-10T03:05:08.819Z,100.00
2022-10-10T03:10:10.542Z,100.00
2022-10-10T03:15:12.344Z,100.00
2022-10-10T03:20:13.990Z,100.00
2022-10-10T03:25:15.525Z,100.00
2022-10-10T03:30:17.089Z,100.00
2022-10-10T03:35:18.606Z,100.00
2022-10-10T03:40:20.139Z,100.00
2022-10-10T03:45:21.715Z,100.00
2022-10-10T03:50:23.250Z,100.00
2022-10-10T03:55:24.820Z,100.00
2022-10-10T04:00:26.535Z,100.00
2022-10-10T04:05:28.040Z,100.00
2022-10-10T04:10:29.595Z,100.00
2022-10-10T04:15:32.569Z,100.00
2022-10-10T04:20:34.150Z,100.00
2022-10-10T04:25:35.666Z,100.00
2022-10-10T04:30:37.215Z,100.00
2022-10-10T04:35:39.346Z,100.00
2022-10-10T04:40:40.901Z,100.00
2022-10-10T04:45:42.449Z,100.00
2022-10-10T04:50:44.001Z,100.00
2022-10-10T04:55:45.798Z,100.00
2022-10-10T05:00:51.866Z,100.00
2022-10-10T05:05:53.432Z,100.00
2022-10-10T05:10:55.367Z,100.00
2022-10-10T05:15:57.192Z,100.00
2022-10-10T05:21:03.400Z,100.00
2022-10-10T05:26:05.494Z,100.00
2022-10-10T05:31:07.516Z,100.00
2022-10-10T05:36:11.962Z,100.00
2022-10-10T05:41:13.560Z,100.00
2022-10-10T05:46:15.172Z,100.00
2022-10-10T05:51:16.690Z,100.00
2022-10-10T05:56:18.192Z,100.00
2022-10-10T06:01:19.728Z,100.00
2022-10-10T06:06:22.601Z,100.00
2022-10-10T06:11:25.908Z,100.00
2022-10-10T06:16:28.050Z,100.00
2022-10-10T06:21:29.883Z,100.00
2022-10-10T06:26:31.421Z,100.00
2022-10-10T06:31:32.979Z,100.00
2022-10-10T06:36:34.786Z,100.00
2022-10-10T06:41:36.332Z,100.00
2022-10-10T06:46:37.876Z,100.00
2022-10-10T06:51:40.155Z,100.00
2022-10-10T06:56:41.835Z,100.00
2022-10-10T07:01:43.468Z,100.00
2022-10-10T07:06:45.044Z,100.00
2022-10-10T07:11:46.727Z,100.00
2022-10-10T07:16:48.311Z,100.00
2022-10-10T07:21:50.667Z,100.00
2022-10-10T07:27:02.313Z,100.00
2022-10-10T07:32:06.541Z,100.00
2022-10-10T07:37:08.086Z,100.00
2022-10-10T07:42:09.638Z,100.00
2022-10-10T07:47:11.263Z,100.00
2022-10-10T07:52:12.842Z,100.00
2022-10-10T07:57:14.344Z,100.00
2022-10-10T08:02:16.585Z,100.00
2022-10-10T08:07:19.557Z,100.00
2022-10-10T08:12:21.339Z,100.00
2022-10-10T08:17:22.887Z,100.00
2022-10-10T08:22:24.422Z,100.00
2022-10-10T08:27:26.047Z,100.00
2022-10-10T08:32:27.592Z,100.00
2022-10-10T08:37:32.750Z,100.00
2022-10-10T08:42:50.268Z,100.00
2022-10-10T08:47:58.142Z,100.00
2022-10-10T08:53:20.346Z,100.00
2022-10-10T08:58:31.574Z,100.00
2022-10-10T09:03:45.290Z,100.00
2022-10-10T09:08:54.819Z,100.00
2022-10-10T09:14:08.437Z,100.00
2022-10-10T09:19:24.939Z,100.00
2022-10-10T09:24:52.184Z,100.00
2022-10-10T09:30:17.898Z,100.00
2022-10-10T09:35:24.685Z,100.00
2022-10-10T09:40:37.701Z,100.00
2022-10-10T09:45:44.408Z,100.00
2022-10-10T09:50:45.961Z,100.00
2022-10-10T09:55:49.605Z,100.00
2022-10-10T10:00:53.608Z,100.00
2022-10-10T10:05:59.133Z,100.00
2022-10-10T10:11:01.781Z,100.00
2022-10-10T10:16:08.922Z,100.00
2022-10-10T10:21:16.167Z,100.00
2022-10-10T10:26:20.742Z,100.00
2022-10-10T10:31:35.508Z,100.00
2022-10-10T10:36:51.338Z,100.00
2022-10-10T10:42:47.155Z,100.00
2022-10-10T10:48:07.991Z,100.00
2022-10-10T10:53:18.843Z,100.00
2022-10-10T11:05:16.323Z,100.00
2022-10-10T11:09:49.632Z,100.00
2022-10-10T11:15:03.320Z,100.00
2022-10-10T11:20:29.243Z,100.00
2022-10-10T11:25:42.578Z,100.00
2022-10-10T11:30:50.340Z,100.00
2022-10-10T11:36:01.396Z,100.00
2022-10-10T11:41:22.973Z,100.00
2022-10-10T11:46:36.311Z,100.00
2022-10-10T11:52:09.458Z,100.00
2022-10-10T11:57:33.992Z,100.00
2022-10-10T12:02:37.914Z,100.00
2022-10-10T12:07:51.268Z,100.00
2022-10-10T12:12:58.088Z,100.00
2022-10-10T12:17:59.811Z,100.00
2022-10-10T12:23:26.271Z,100.00
2022-10-10T12:28:35.345Z,100.00
2022-10-10T12:33:36.936Z,100.00
2022-10-10T12:38:38.462Z,100.00
2022-10-10T12:43:52.328Z,100.00
2022-10-10T12:49:17.917Z,100.00
2022-10-10T12:54:25.051Z,100.00
2022-10-10T12:59:26.732Z,100.00
2022-10-10T13:04:28.861Z,100.00
2022-10-10T13:09:35.739Z,100.00
2022-10-10T13:14:43.287Z,100.00
2022-10-10T13:19:44.866Z,100.00
2022-10-10T13:24:48.093Z,100.00
2022-10-10T13:29:50.903Z,100.00
2022-10-10T13:34:58.211Z,100.00
2022-10-10T13:40:00.928Z,100.00
2022-10-10T13:45:26.554Z,100.00
2022-10-10T13:50:53.403Z,100.00
2022-10-10T13:56:06.648Z,100.00
2022-10-10T14:01:29.517Z,100.00
2022-10-10T14:06:32.128Z,100.00
2022-10-10T14:11:34.904Z,100.00
2022-10-10T14:16:36.498Z,100.00
2022-10-10T14:21:38.087Z,100.00
2022-10-10T14:26:39.617Z,100.00
2022-10-10T14:31:42.152Z,100.00
2022-10-10T14:36:48.751Z,100.00
2022-10-10T14:41:50.331Z,100.00
2022-10-10T14:46:52.120Z,100.00
2022-10-10T14:51:53.695Z,100.00
2022-10-10T14:57:08.299Z,100.00
2022-10-10T15:02:11.539Z,100.00
2022-10-10T15:07:14.990Z,100.00
2022-10-10T15:12:16.884Z,100.00
2022-10-10T15:17:18.545Z,100.00
2022-10-10T15:22:20.108Z,100.00
2022-10-10T15:27:21.664Z,100.00
2022-10-10T15:32:23.215Z,100.00
2022-10-10T15:37:26.565Z,100.00
2022-10-10T15:42:28.267Z,100.00
2022-10-10T15:47:29.919Z,100.00
2022-10-10T15:52:31.424Z,100.00
2022-10-10T15:57:33.148Z,100.00
2022-10-10T16:02:34.765Z,100.00
2022-10-10T16:07:46.596Z,100.00
2022-10-10T16:12:49.724Z,100.00
2022-10-10T16:17:51.227Z,100.00
2022-10-10T16:22:54.095Z,100.00
2022-10-10T16:27:55.676Z,100.00
2022-10-10T16:32:59.125Z,99.82
2022-10-10T16:38:00.674Z,99.55
2022-10-10T16:43:02.850Z,99.60
2022-10-10T16:48:04.381Z,100.00
2022-10-10T16:53:06.427Z,100.00
2022-10-10T16:58:09.307Z,100.00
2022-10-10T17:03:10.765Z,100.00
2022-10-10T17:08:12.325Z,100.00
2022-10-10T17:13:13.836Z,100.00
2022-10-10T17:18:17.360Z,100.00
2022-10-10T17:23:19.395Z,100.00
2022-10-10T17:28:20.973Z,100.00
2022-10-10T17:33:23.433Z,100.00
2022-10-10T17:38:39.083Z,100.00
2022-10-10T17:43:41.839Z,100.00
2022-10-10T17:48:43.502Z,100.00
2022-10-10T17:53:44.992Z,100.00
2022-10-10T17:58:47.061Z,100.00
2022-10-10T18:03:48.770Z,100.00
2022-10-10T18:08:51.820Z,100.00
2022-10-10T18:13:54.376Z,100.00
2022-10-10T18:18:55.896Z,100.00
2022-10-10T18:23:58.214Z,100.00
2022-10-10T18:28:59.664Z,100.00
2022-10-10T18:34:02.628Z,100.00
2022-10-10T18:39:08.754Z,100.00
2022-10-10T18:44:16.813Z,100.00
2022-10-10T18:49:18.875Z,100.00
2022-10-10T18:54:20.433Z,100.00
2022-10-10T18:59:22.169Z,100.00
2022-10-10T19:04:23.816Z,100.00
2022-10-10T19:09:25.878Z,100.00
2022-10-10T19:14:27.547Z,100.00
2022-10-10T19:19:29.059Z,100.00
2022-10-10T19:24:30.504Z,100.00
2022-10-10T19:29:32.249Z,100.00
2022-10-10T19:34:33.749Z,100.00
2022-10-10T19:39:35.236Z,100.00
2022-10-10T19:44:36.843Z,100.00
2022-10-10T19:49:38.397Z,100.00
2022-10-10T19:54:39.912Z,100.00
2022-10-10T19:59:41.400Z,100.00
2022-10-10T20:04:42.861Z,100.00
2022-10-10T20:09:44.358Z,100.00
2022-10-10T20:14:45.811Z,100.00
2022-10-10T20:19:47.409Z,100.00
2022-10-10T20:24:48.986Z,100.00
2022-10-10T20:29:50.510Z,100.00
2022-10-10T20:34:52.081Z,100.00
2022-10-10T20:39:53.522Z,100.00
2022-10-10T20:44:55.059Z,100.00
2022-10-10T20:49:56.717Z,100.00
2022-10-10T20:54:58.190Z,100.00
2022-10-10T20:59:59.642Z,100.00
2022-10-10T21:05:01.199Z,100.00
2022-10-10T21:10:02.747Z,100.00
2022-10-10T21:15:04.498Z,100.00
2022-10-10T21:20:06.383Z,100.00
2022-10-10T21:25:08.204Z,100.00
2022-10-10T21:30:10.002Z,100.00
2022-10-10T21:35:11.446Z,100.00
2022-10-10T21:40:12.952Z,100.00
2022-10-10T21:45:14.566Z,100.00
2022-10-10T21:50:16.125Z,100.00
2022-10-10T21:55:17.592Z,100.00
2022-10-10T22:00:19.802Z,100.00
2022-10-10T22:05:21.283Z,100.00
2022-10-10T22:10:22.775Z,100.00
2022-10-10T22:15:24.304Z,100.00
2022-10-10T22:20:26.039Z,100.00
2022-10-10T22:25:27.631Z,100.00
2022-10-10T22:30:29.102Z,100.00
2022-10-10T22:35:31.096Z,100.00
2022-10-10T22:40:32.687Z,100.00
2022-10-10T22:45:34.391Z,100.00
2022-10-10T22:50:35.877Z,100.00
2022-10-10T22:55:37.360Z,100.00
2022-10-10T23:00:40.508Z,100.00
2022-10-10T23:05:44.235Z,100.00
2022-10-10T23:10:47.246Z,100.00
2022-10-10T23:15:48.733Z,100.00
2022-10-10T23:20:50.705Z,100.00
2022-10-10T23:25:52.154Z,100.00
2022-10-10T23:30:53.643Z,100.00
2022-10-10T23:36:03.010Z,100.00
2022-10-10T23:41:05.595Z,100.00
2022-10-10T23:46:07.962Z,100.00
2022-10-10T23:51:09.843Z,100.00
2022-10-10T23:56:11.629Z,100.00
